Time;durP1;ratioP1;P1;durP2;ratioP2;P2;SDS_P1;SDS_P2;PMS_P1;PMS_P2;Temp;Humidity;BMP_temperature;BMP_pressure;BME280_temperature;BME280_humidity;BME280_pressure;Samples;Min_cycle;Max_cycle;Signal;HPM_P1;HPM_P2
2021/04/03 00:00:39;;;;;;;1999.90;999.90;;;6.20;72.50;;;;;;5067465;28;20195;-72
2021/04/03 00:03:08;;;;;;;1999.90;999.90;;;6.10;72.00;;;;;;5065488;28;20442;-72
2021/04/03 00:05:35;;;;;;;1999.90;999.90;;;6.10;71.80;;;;;;5065203;28;20124;-72
2021/04/03 00:08:02;;;;;;;1999.90;999.90;;;6.00;71.60;;;;;;5066266;28;20040;-72
2021/04/03 00:10:37;;;;;;;1999.90;999.90;;;6.00;71.60;;;;;;5065414;28;20446;-72
2021/04/03 00:13:03;;;;;;;1999.90;999.90;;;5.90;71.50;;;;;;5069171;28;20090;-71
2021/04/03 00:15:30;;;;;;;1999.90;999.90;;;5.90;71.50;;;;;;5066258;28;20076;-72
2021/04/03 00:17:56;;;;;;;1999.90;999.90;;;6.00;72.30;;;;;;5066371;28;20044;-71
2021/04/03 00:20:26;;;;;;;1999.90;999.90;;;6.00;71.70;;;;;;5065965;28;20143;-72
2021/04/03 00:22:53;;;;;;;1999.90;999.90;;;6.00;72.20;;;;;;5069757;28;20496;-71
2021/04/03 00:25:19;;;;;;;1999.90;999.90;;;6.00;71.50;;;;;;5068393;28;20037;-72
2021/04/03 00:27:46;;;;;;;1999.90;999.90;;;6.00;71.50;;;;;;5068581;28;20491;-71
2021/04/03 00:30:15;;;;;;;1999.90;999.90;;;6.00;71.60;;;;;;5069452;28;20045;-72
2021/04/03 00:32:45;;;;;;;;;;;6.00;71.60;;;;;;5064686;28;20499;-72
2021/04/03 00:35:12;;;;;;;1999.90;999.90;;;6.10;71.80;;;;;;5066284;28;19920;-71
2021/04/03 00:37:39;;;;;;;1999.90;999.90;;;6.10;71.40;;;;;;5066947;28;20147;-72
2021/04/03 00:40:09;;;;;;;1999.90;999.90;;;6.10;71.60;;;;;;5063495;28;20044;-71
2021/04/03 00:42:35;;;;;;;1999.90;999.90;;;6.10;71.30;;;;;;5066441;28;20684;-71
2021/04/03 00:45:03;;;;;;;1999.90;999.90;;;6.10;71.20;;;;;;5066729;28;20050;-71
2021/04/03 00:47:30;;;;;;;1999.90;999.90;;;6.10;71.10;;;;;;5067489;28;20137;-71
2021/04/03 00:49:57;;;;;;;1999.90;999.90;;;6.10;71.30;;;;;;5069639;28;20058;-72
2021/04/03 00:52:23;;;;;;;1999.90;999.90;;;6.20;71.50;;;;;;5068954;28;20044;-71
2021/04/03 00:54:51;;;;;;;1999.90;999.90;;;6.20;71.20;;;;;;5068701;28;20491;-71
2021/04/03 00:57:17;;;;;;;1999.90;999.90;;;6.20;71.30;;;;;;5064425;28;20076;-71
2021/04/03 00:59:44;;;;;;;1999.90;999.90;;;6.20;71.40;;;;;;5068365;28;20185;-72
2021/04/03 01:02:10;;;;;;;1999.90;999.90;;;6.20;71.30;;;;;;5064850;28;20147;-72
2021/04/03 01:04:37;;;;;;;1999.90;999.90;;;6.30;71.40;;;;;;5069147;28;20098;-71
2021/04/03 01:07:04;;;;;;;1999.90;999.90;;;6.30;71.20;;;;;;5065520;28;20037;-72
2021/04/03 01:09:39;;;;;;;1999.90;999.90;;;6.30;71.50;;;;;;5067309;28;20041;-71
2021/04/03 01:12:18;;;;;;;1999.90;999.90;;;6.40;71.50;;;;;;5055566;28;20135;-71
2021/04/03 01:15:06;;;;;;;1999.90;999.90;;;6.30;71.30;;;;;;5048015;28;20507;-71
2021/04/03 01:17:52;;;;;;;1999.90;999.90;;;6.40;71.50;;;;;;5049884;28;20433;-72
2021/04/03 01:20:39;;;;;;;1999.90;999.90;;;6.40;71.50;;;;;;5047331;28;20052;-72
2021/04/03 01:23:22;;;;;;;1999.90;999.90;;;6.40;71.50;;;;;;5046126;28;20049;-72
2021/04/03 01:26:26;;;;;;;1999.90;999.90;;;6.40;72.10;;;;;;5047944;28;20110;-71
2021/04/03 01:29:17;;;;;;;1999.90;999.90;;;6.40;71.60;;;;;;5047329;28;20044;-71
2021/04/03 01:31:45;;;;;;;1999.90;999.90;;;6.40;71.60;;;;;;5049938;28;20041;-72
2021/04/03 01:34:18;;;;;;;1999.90;999.90;;;6.40;71.70;;;;;;5068026;28;20062;-71
2021/04/03 01:36:47;;;;;;;1999.90;999.90;;;6.40;71.60;;;;;;5067624;28;20052;-71
2021/04/03 01:39:16;;;;;;;1999.90;999.90;;;6.40;71.60;;;;;;5063875;28;20044;-71
2021/04/03 01:41:46;;;;;;;1999.90;999.90;;;6.50;71.60;;;;;;5065637;28;20411;-71
2021/04/03 01:44:18;;;;;;;1999.90;999.90;;;6.50;71.70;;;;;;5066818;28;20063;-72
2021/04/03 01:46:47;;;;;;;1999.90;999.90;;;6.50;71.50;;;;;;5064624;28;20368;-73
2021/04/03 01:49:15;;;;;;;1999.90;999.90;;;6.50;71.60;;;;;;5065530;28;20463;-71
2021/04/03 01:51:45;;;;;;;1999.90;999.90;;;6.50;72.20;;;;;;5064400;28;20055;-71
2021/04/03 01:54:13;;;;;;;1999.90;999.90;;;6.50;71.60;;;;;;5064134;28;20503;-72
2021/04/03 01:56:42;;;;;;;1999.90;999.90;;;6.50;71.60;;;;;;5065069;28;20048;-72
2021/04/03 01:59:10;;;;;;;1999.90;999.90;;;6.50;71.60;;;;;;5069043;28;20051;-72
2021/04/03 02:01:38;;;;;;;1999.90;999.90;;;6.50;72.20;;;;;;5067223;28;20135;-71
2021/04/03 02:04:06;;;;;;;1999.90;999.90;;;6.50;71.60;;;;;;5067427;28;20044;-71
2021/04/03 02:06:37;;;;;;;1999.90;999.90;;;6.50;71.60;;;;;;5067204;28;20063;-71
2021/04/03 02:09:05;;;;;;;1999.90;999.90;;;6.50;71.90;;;;;;5062201;28;20065;-71
2021/04/03 02:11:42;;;;;;;1999.90;999.90;;;6.50;71.80;;;;;;5062623;28;20131;-71
2021/04/03 02:14:08;;;;;;;1999.90;999.90;;;6.50;71.80;;;;;;5063907;28;20294;-71
2021/04/03 02:16:39;;;;;;;1999.90;999.90;;;6.60;71.90;;;;;;5066259;28;20143;-71
2021/04/03 02:19:08;;;;;;;1999.90;999.90;;;6.60;72.00;;;;;;5062119;28;20460;-71
2021/04/03 02:21:35;;;;;;;1999.90;999.90;;;6.60;72.20;;;;;;5063024;28;20084;-71
2021/04/03 02:24:03;;;;;;;1999.90;999.90;;;6.60;72.10;;;;;;5068912;28;20051;-71
2021/04/03 02:26:30;;;;;;;1999.90;999.90;;;6.60;72.40;;;;;;5068078;28;20071;-71
2021/04/03 02:28:57;;;;;;;1999.90;999.90;;;6.60;72.50;;;;;;5071388;28;20114;-71
2021/04/03 02:31:23;;;;;;;1999.90;999.90;;;6.60;72.30;;;;;;5069345;28;20051;-71
2021/04/03 02:33:55;;;;;;;1999.90;999.90;;;6.60;72.40;;;;;;5069924;28;20826;-71
2021/04/03 02:36:21;;;;;;;1999.90;999.90;;;6.60;72.50;;;;;;5067618;28;20040;-71
2021/04/03 02:38:49;;;;;;;1999.90;999.90;;;6.60;72.60;;;;;;5067846;28;20083;-71
2021/04/03 02:41:22;;;;;;;1999.90;999.90;;;6.60;72.60;;;;;;5065234;28;20050;-71
2021/04/03 02:44:10;;;;;;;1999.90;999.90;;;6.60;72.60;;;;;;5063440;28;20388;-71
2021/04/03 02:46:50;;;;;;;1999.90;999.90;;;6.60;72.40;;;;;;5062984;28;20044;-71
2021/04/03 02:49:24;;;;;;;1999.90;999.90;;;6.60;72.30;;;;;;5064584;28;20499;-71
2021/04/03 02:51:55;;;;;;;1999.90;999.90;;;6.60;72.20;;;;;;5087733;28;20052;-71
2021/04/03 02:54:23;;;;;;;1999.90;999.90;;;6.60;72.20;;;;;;5064416;28;20090;-72
2021/04/03 02:56:51;;;;;;;1999.90;999.90;;;6.60;72.10;;;;;;5067602;28;20041;-71
2021/04/03 02:59:24;;;;;;;1999.90;999.90;;;6.60;72.30;;;;;;5073214;28;20411;-71
2021/04/03 03:01:54;;;;;;;1999.90;999.90;;;6.60;72.20;;;;;;5068997;28;21095;-71
2021/04/03 03:04:22;;;;;;;1999.90;999.90;;;6.60;72.30;;;;;;5069695;28;20151;-72
2021/04/03 03:06:49;;;;;;;1999.90;999.90;;;6.60;72.20;;;;;;5058756;28;20045;-71
2021/04/03 03:09:17;;;;;;;1999.90;999.90;;;6.60;72.10;;;;;;5065230;28;20431;-71
2021/04/03 03:11:48;;;;;;;1999.90;999.90;;;6.60;72.10;;;;;;5065752;28;20447;-71
2021/04/03 03:14:16;;;;;;;1999.90;999.90;;;6.60;72.10;;;;;;5065141;28;20461;-71
2021/04/03 03:16:46;;;;;;;1999.90;999.90;;;6.60;71.90;;;;;;5067627;28;20051;-71
2021/04/03 03:19:14;;;;;;;1999.90;999.90;;;6.60;71.80;;;;;;5067974;28;20467;-71
2021/04/03 03:21:41;;;;;;;1999.90;999.90;;;6.60;71.70;;;;;;5070387;28;20053;-71
2021/04/03 03:24:09;;;;;;;1999.90;999.90;;;6.60;71.70;;;;;;5069621;28;20675;-71
2021/04/03 03:26:37;;;;;;;1999.90;999.90;;;6.60;71.50;;;;;;5063007;28;20044;-71
2021/04/03 03:29:07;;;;;;;1999.90;999.90;;;6.60;71.40;;;;;;5068259;28;20040;-71
2021/04/03 03:31:34;;;;;;;1999.90;999.90;;;6.50;71.10;;;;;;5063523;28;20045;-71
2021/04/03 03:34:00;;;;;;;1999.90;999.90;;;6.50;71.00;;;;;;5063204;28;20517;-71
2021/04/03 03:36:28;;;;;;;1999.90;999.90;;;6.40;70.80;;;;;;5064271;28;20053;-72
2021/04/03 03:38:55;;;;;;;1999.90;999.90;;;6.40;70.70;;;;;;5066874;28;20044;-72
2021/04/03 03:41:24;;;;;;;1999.90;999.90;;;6.30;70.50;;;;;;5066598;28;20509;-71
2021/04/03 03:43:51;;;;;;;1999.90;999.90;;;6.20;70.30;;;;;;5068549;28;20472;-71
2021/04/03 03:46:18;;;;;;;1999.90;999.90;;;6.10;70.20;;;;;;5067872;28;20163;-71
2021/04/03 03:48:44;;;;;;;1999.90;999.90;;;6.10;70.10;;;;;;5068508;28;20054;-71
2021/04/03 03:51:11;;;;;;;1999.90;999.90;;;6.00;70.10;;;;;;5067722;28;20040;-71
2021/04/03 03:53:38;;;;;;;1999.90;999.90;;;5.90;70.10;;;;;;5060461;28;20096;-71
2021/04/03 03:56:05;;;;;;;1999.90;999.90;;;5.90;70.10;;;;;;5068641;28;20419;-71
2021/04/03 03:58:31;;;;;;;1999.90;999.90;;;5.80;70.60;;;;;;5064117;28;20136;-71
2021/04/03 04:00:57;;;;;;;1999.90;999.90;;;5.80;69.90;;;;;;5068702;28;20373;-71
2021/04/03 04:03:24;;;;;;;1999.90;999.90;;;5.80;70.30;;;;;;5068018;28;20044;-71
2021/04/03 04:05:50;;;;;;;1999.90;999.90;;;5.70;70.20;;;;;;5065112;28;20414;-71
2021/04/03 04:08:18;;;;;;;1999.90;999.90;;;5.70;70.00;;;;;;5069374;28;20137;-72
2021/04/03 04:10:44;;;;;;;1999.90;999.90;;;5.70;70.20;;;;;;5068787;28;21196;-71
2021/04/03 04:13:11;;;;;;;1999.90;999.90;;;5.60;70.00;;;;;;5068668;28;20040;-71
2021/04/03 04:15:37;;;;;;;1999.90;999.90;;;5.60;70.20;;;;;;5069169;28;20139;-71
2021/04/03 04:18:04;;;;;;;1999.90;999.90;;;5.60;70.30;;;;;;5066181;28;20460;-71
2021/04/03 04:20:30;;;;;;;1999.90;999.90;;;5.50;70.20;;;;;;5066355;28;20048;-72
2021/04/03 04:22:56;;;;;;;1999.90;999.90;;;5.50;70.40;;;;;;5065232;28;20114;-71
2021/04/03 04:25:22;;;;;;;1999.90;999.90;;;5.50;70.40;;;;;;5069016;28;20048;-71
2021/04/03 04:27:49;;;;;;;1999.90;999.90;;;5.50;70.30;;;;;;5065075;28;20472;-71
2021/04/03 04:30:15;;;;;;;1999.90;999.90;;;5.50;71.00;;;;;;5069893;28;20041;-71
2021/04/03 04:32:44;;;;;;;1999.90;999.90;;;5.40;70.40;;;;;;5056983;28;20127;-71
2021/04/03 04:35:11;;;;;;;1999.90;999.90;;;5.40;70.50;;;;;;5048273;28;20073;-71
2021/04/03 04:37:38;;;;;;;1999.90;999.90;;;5.40;70.40;;;;;;5049307;28;20047;-71
2021/04/03 04:40:07;;;;;;;1999.90;999.90;;;5.30;70.30;;;;;;5049096;28;20044;-71
2021/04/03 04:42:33;;;;;;;1999.90;999.90;;;5.30;70.40;;;;;;5050853;28;20889;-71
2021/04/03 04:45:00;;;;;;;1999.90;999.90;;;5.30;70.40;;;;;;5050924;28;20059;-71
2021/04/03 04:47:26;;;;;;;1999.90;999.90;;;5.20;70.40;;;;;;5047650;28;20048;-71
2021/04/03 04:49:52;;;;;;;1999.90;999.90;;;5.20;70.40;;;;;;5046352;28;20055;-71
2021/04/03 04:52:19;;;;;;;1999.90;999.90;;;5.20;70.40;;;;;;5048108;28;20143;-71
2021/04/03 04:54:45;;;;;;;1999.90;999.90;;;5.20;70.50;;;;;;5062560;28;20047;-71
2021/04/03 04:57:12;;;;;;;1999.90;999.90;;;5.20;70.70;;;;;;5065847;28;20365;-71
2021/04/03 04:59:39;;;;;;;1999.90;999.90;;;5.10;70.50;;;;;;5065457;28;20080;-71
2021/04/03 05:02:05;;;;;;;1999.90;999.90;;;5.10;70.60;;;;;;5063308;28;20102;-71
2021/04/03 05:04:31;;;;;;;1999.90;999.90;;;5.10;70.60;;;;;;5068675;28;20055;-71
2021/04/03 05:06:58;;;;;;;1999.90;999.90;;;5.10;70.60;;;;;;5061180;28;20401;-71
2021/04/03 05:09:24;;;;;;;1999.90;999.90;;;5.10;70.70;;;;;;5067020;28;20098;-71
2021/04/03 05:11:50;;;;;;;1999.90;999.90;;;5.10;70.70;;;;;;5061867;28;20068;-71
2021/04/03 05:14:17;;;;;;;1999.90;999.90;;;5.10;70.80;;;;;;5059856;28;20044;-71
2021/04/03 05:16:43;;;;;;;1999.90;999.90;;;5.10;70.90;;;;;;5064566;28;20456;-71
2021/04/03 05:19:10;;;;;;;1999.90;999.90;;;5.10;70.90;;;;;;5065993;28;20376;-71
2021/04/03 05:21:36;;;;;;;1999.90;999.90;;;5.10;71.00;;;;;;5058483;28;20053;-71
2021/04/03 05:24:02;;;;;;;1999.90;999.90;;;5.10;71.10;;;;;;5066581;28;20219;-71
2021/04/03 05:26:28;;;;;;;1999.90;999.90;;;5.10;71.10;;;;;;5055528;28;20041;-71
2021/04/03 05:28:54;;;;;;;1999.90;999.90;;;5.10;71.40;;;;;;5062428;28;20163;-71
2021/04/03 05:31:21;;;;;;;1999.90;999.90;;;5.20;71.40;;;;;;5062567;28;20456;-71
2021/04/03 05:33:50;;;;;;;1999.90;999.90;;;5.20;71.50;;;;;;5065615;28;20039;-71
2021/04/03 05:36:17;;;;;;;1999.90;999.90;;;5.20;71.60;;;;;;5062523;28;20056;-71
2021/04/03 05:38:43;;;;;;;1999.90;999.90;;;5.30;71.80;;;;;;5067291;28;20052;-71
2021/04/03 05:41:09;;;;;;;1999.90;999.90;;;5.30;72.00;;;;;;5067625;28;20052;-71
2021/04/03 05:43:40;;;;;;;1999.90;999.90;;;5.30;72.20;;;;;;5068314;28;20040;-71
2021/04/03 05:46:07;;;;;;;1999.90;999.90;;;5.40;72.40;;;;;;5064000;28;20131;-71
2021/04/03 05:48:35;;;;;;;1999.90;999.90;;;5.50;72.70;;;;;;5066154;28;20049;-72
2021/04/03 05:51:02;;;;;;;1999.90;999.90;;;5.50;72.80;;;;;;5063502;28;20044;-71
2021/04/03 05:53:29;;;;;;;1999.90;999.90;;;5.60;73.00;;;;;;5065788;28;20040;-71
2021/04/03 05:55:57;;;;;;;1999.90;999.90;;;5.70;73.30;;;;;;5064140;28;20522;-72
2021/04/03 05:58:24;;;;;;;1999.90;999.90;;;5.80;73.50;;;;;;5068949;28;20074;-71
2021/04/03 06:00:52;;;;;;;1999.90;999.90;;;5.80;73.70;;;;;;5069853;28;20131;-71
2021/04/03 06:03:19;;;;;;;1999.90;999.90;;;5.90;73.90;;;;;;5067432;28;20144;-71
2021/04/03 06:05:49;;;;;;;1999.90;999.90;;;6.00;74.20;;;;;;5070301;28;20131;-71
2021/04/03 06:08:16;;;;;;;1999.90;999.90;;;6.10;74.40;;;;;;5065754;28;20040;-71
2021/04/03 06:11:02;;;;;;;1999.90;999.90;;;6.20;74.50;;;;;;5069587;28;20131;-71
2021/04/03 06:13:29;;;;;;;1999.90;999.90;;;6.30;74.60;;;;;;5070417;28;20488;-71
2021/04/03 06:15:56;;;;;;;1999.90;999.90;;;6.40;74.80;;;;;;5068265;28;20072;-71
2021/04/03 06:18:22;;;;;;;1999.90;999.90;;;6.50;74.90;;;;;;5069752;28;20147;-71
2021/04/03 06:20:49;;;;;;;1999.90;999.90;;;6.50;74.90;;;;;;5066376;28;20509;-73
2021/04/03 06:23:30;;;;;;;1999.90;999.90;;;6.60;75.20;;;;;;5068777;28;20040;-71
2021/04/03 06:25:58;;;;;;;1999.90;999.90;;;6.60;75.40;;;;;;5065927;28;20052;-71
2021/04/03 06:28:27;;;;;;;1999.90;999.90;;;6.70;75.50;;;;;;5062294;28;20073;-71
2021/04/03 06:30:57;;;;;;;1999.90;999.90;;;6.80;75.70;;;;;;5068524;28;20051;-71
2021/04/03 06:33:24;;;;;;;1999.90;999.90;;;6.80;75.90;;;;;;5067312;28;20057;-71
2021/04/03 06:36:12;;;;;;;1999.90;999.90;;;6.90;76.10;;;;;;5065454;28;20135;-71
2021/04/03 06:38:43;;;;;;;1999.90;999.90;;;6.90;76.20;;;;;;5067903;28;20068;-71
2021/04/03 06:41:24;;;;;;;1999.90;999.90;;;7.00;76.30;;;;;;5068074;28;20219;-71
2021/04/03 06:44:07;;;;;;;1999.90;999.90;;;7.00;76.40;;;;;;5066276;28;20049;-71
2021/04/03 06:46:35;;;;;;;1999.90;999.90;;;7.10;76.50;;;;;;5070075;28;20041;-71
2021/04/03 06:49:03;;;;;;;1999.90;999.90;;;7.10;76.50;;;;;;5064484;28;20036;-71
2021/04/03 06:51:30;;;;;;;1999.90;999.90;;;7.20;76.80;;;;;;5069448;28;20511;-71
2021/04/03 06:53:58;;;;;;;1999.90;999.90;;;7.20;77.20;;;;;;5063879;28;20049;-71
2021/04/03 06:56:26;;;;;;;1999.90;999.90;;;7.30;77.30;;;;;;5070580;28;20503;-71
2021/04/03 06:58:59;;;;;;;1999.90;999.90;;;7.40;77.80;;;;;;5065326;28;20045;-71
2021/04/03 07:01:27;;;;;;;1999.90;999.90;;;7.40;77.80;;;;;;5068381;28;20484;-71
2021/04/03 07:03:57;;;;;;;1999.90;999.90;;;7.50;78.00;;;;;;5062905;28;20047;-71
2021/04/03 07:06:24;;;;;;;1999.90;999.90;;;7.60;78.40;;;;;;5069833;28;20070;-71
2021/04/03 07:08:51;;;;;;;1999.90;999.90;;;7.70;78.50;;;;;;5067612;28;20074;-71
2021/04/03 07:11:18;;;;;;;1999.90;999.90;;;7.70;78.40;;;;;;5070692;28;20048;-71
2021/04/03 07:13:45;;;;;;;1999.90;999.90;;;7.90;78.90;;;;;;5067289;28;20652;-71
2021/04/03 07:16:11;;;;;;;1999.90;999.90;;;8.00;78.90;;;;;;5069008;28;20052;-71
2021/04/03 07:18:41;;;;;;;1999.90;999.90;;;8.10;79.30;;;;;;5067879;28;20044;-71
2021/04/03 07:21:08;;;;;;;1999.90;999.90;;;8.20;79.70;;;;;;5064252;28;20045;-71
2021/04/03 07:23:38;;;;;;;1999.90;999.90;;;8.30;79.60;;;;;;5068993;28;20531;-71
2021/04/03 07:26:06;;;;;;;1999.90;999.90;;;8.40;79.70;;;;;;5065915;28;20116;-71
2021/04/03 07:28:40;;;;;;;1999.90;999.90;;;8.50;79.90;;;;;;5063862;28;20051;-71
2021/04/03 07:31:07;;;;;;;1999.90;999.90;;;8.60;80.10;;;;;;5068518;28;20047;-71
2021/04/03 07:33:34;;;;;;;1999.90;999.90;;;8.70;80.20;;;;;;5058214;28;20054;-71
2021/04/03 07:36:03;;;;;;;1999.90;999.90;;;8.80;80.40;;;;;;5064931;28;20151;-71
2021/04/03 07:38:31;;;;;;;;;;;8.90;80.70;;;;;;5065630;28;20156;-71
2021/04/03 07:41:20;;;;;;;1999.90;999.90;;;9.00;81.30;;;;;;5065566;28;19936;-72
2021/04/03 07:43:49;;;;;;;1999.90;999.90;;;9.10;81.20;;;;;;5066764;28;20403;-71
2021/04/03 07:46:35;;;;;;;1999.90;999.90;;;9.20;81.20;;;;;;5059980;28;20071;-72
2021/04/03 07:49:01;;;;;;;1999.90;999.90;;;9.30;81.20;;;;;;5067786;28;20072;-71
2021/04/03 07:51:28;;;;;;;1999.90;999.90;;;9.30;81.20;;;;;;5064175;28;20053;-71
2021/04/03 07:53:56;;;;;;;1999.90;999.90;;;9.40;81.40;;;;;;5061705;28;20041;-72
2021/04/03 07:56:24;;;;;;;1999.90;999.90;;;9.50;81.60;;;;;;5061141;28;20051;-71
2021/04/03 07:58:55;;;;;;;1999.90;999.90;;;9.60;81.70;;;;;;5061428;28;20415;-71
2021/04/03 08:01:41;;;;;;;1999.90;999.90;;;9.70;81.70;;;;;;5064875;28;20054;-71
2021/04/03 08:04:09;;;;;;;1999.90;999.90;;;9.80;81.80;;;;;;5067370;28;20036;-71
2021/04/03 08:06:40;;;;;;;1999.90;999.90;;;9.80;81.80;;;;;;5065535;28;20441;-71
2021/04/03 08:09:13;;;;;;;1999.90;999.90;;;10.00;81.20;;;;;;5069396;28;20047;-71
2021/04/03 08:11:41;;;;;;;1999.90;999.90;;;10.00;80.80;;;;;;5066543;28;20097;-72
2021/04/03 08:14:10;;;;;;;1999.90;999.90;;;10.10;80.80;;;;;;5068995;28;20040;-71
2021/04/03 08:16:38;;;;;;;1999.90;999.90;;;10.20;80.90;;;;;;5065213;28;20147;-72
2021/04/03 08:19:06;;;;;;;1999.90;999.90;;;10.20;80.70;;;;;;5056505;28;20036;-71
2021/04/03 08:21:44;;;;;;;1999.90;999.90;;;10.20;80.40;;;;;;5060679;28;20052;-71
2021/04/03 08:24:11;;;;;;;1999.90;999.90;;;10.20;80.40;;;;;;5056445;28;20047;-71
2021/04/03 08:26:42;;;;;;;1999.90;999.90;;;10.30;80.50;;;;;;5061684;28;20052;-71
2021/04/03 08:29:20;;;;;;;1999.90;999.90;;;10.30;80.40;;;;;;5062611;28;20041;-71
2021/04/03 08:31:50;;;;;;;1999.90;999.90;;;10.30;80.10;;;;;;5063060;28;20050;-71
2021/04/03 08:34:17;;;;;;;1999.90;999.90;;;10.10;79.70;;;;;;5067889;28;20051;-72
2021/04/03 08:36:43;;;;;;;1999.90;999.90;;;10.00;79.40;;;;;;5066778;28;20749;-71
2021/04/03 08:39:13;;;;;;;1999.90;999.90;;;9.80;80.20;;;;;;5067984;28;20058;-71
2021/04/03 08:41:42;;;;;;;;;;;9.70;80.10;;;;;;5066215;28;20054;-71
2021/04/03 08:44:23;;;;;;;1999.90;999.90;;;9.60;79.90;;;;;;5068655;28;19921;-71
2021/04/03 08:47:01;;;;;;;1999.90;999.90;;;9.50;79.80;;;;;;5064180;28;20041;-71
2021/04/03 08:49:34;;;;;;;1999.90;999.90;;;9.40;79.80;;;;;;5064940;28;20047;-71
2021/04/03 08:52:01;;;;;;;1999.90;999.90;;;9.50;80.20;;;;;;5062487;28;20487;-72
2021/04/03 08:54:38;;;;;;;1999.90;999.90;;;9.80;80.60;;;;;;5069889;28;20044;-71
2021/04/03 08:57:25;;;;;;;1999.90;999.90;;;10.00;79.30;;;;;;5064160;28;20048;-71
2021/04/03 08:59:54;;;;;;;1999.90;999.90;;;10.40;79.70;;;;;;5066178;28;20127;-70
2021/04/03 09:02:21;;;;;;;1999.90;999.90;;;10.60;79.50;;;;;;5068702;28;20052;-71
2021/04/03 09:04:47;;;;;;;1999.90;999.90;;;10.90;79.50;;;;;;5067963;28;20040;-71
2021/04/03 09:07:33;;;;;;;1999.90;999.90;;;11.10;79.40;;;;;;5066560;28;20037;-71
2021/04/03 09:10:07;;;;;;;1999.90;999.90;;;11.20;79.30;;;;;;5069131;28;20063;-71
2021/04/03 09:12:33;;;;;;;1999.90;999.90;;;11.40;79.50;;;;;;5062978;28;20128;-71
2021/04/03 09:15:00;;;;;;;1999.90;999.90;;;11.50;79.70;;;;;;5066992;28;20056;-71
2021/04/03 09:17:27;;;;;;;1999.90;999.90;;;11.80;79.70;;;;;;5062923;28;20049;-71
2021/04/03 09:20:14;;;;;;;1999.90;999.90;;;12.00;79.50;;;;;;5069071;28;20040;-71
2021/04/03 09:22:42;;;;;;;1999.90;999.90;;;12.20;78.70;;;;;;5065841;28;20092;-71
2021/04/03 09:25:13;;;;;;;1999.90;999.90;;;12.20;78.30;;;;;;5067598;28;20049;-71
2021/04/03 09:27:40;;;;;;;1999.90;999.90;;;12.30;78.30;;;;;;5058479;28;20040;-71
2021/04/03 09:30:13;;;;;;;1999.90;999.90;;;12.40;78.10;;;;;;5065239;28;20131;-71
2021/04/03 09:32:43;;;;;;;1999.90;999.90;;;12.50;78.10;;;;;;5067434;28;20106;-71
2021/04/03 09:35:12;;;;;;;1999.90;999.90;;;12.70;78.20;;;;;;5070260;28;20051;-71
2021/04/03 09:37:38;;;;;;;1999.90;999.90;;;12.80;77.80;;;;;;5069545;28;20466;-71
2021/04/03 09:40:08;;;;;;;1999.90;999.90;;;12.80;77.60;;;;;;5073541;28;20076;-72
2021/04/03 09:42:35;;;;;;;1999.90;999.90;;;12.90;77.50;;;;;;5069164;28;20048;-71
2021/04/03 09:45:05;;;;;;;1999.90;999.90;;;13.00;77.10;;;;;;5068723;28;20037;-72
2021/04/03 09:47:32;;;;;;;1999.90;999.90;;;13.10;77.30;;;;;;5071708;28;20068;-71
2021/04/03 09:49:58;;;;;;;1999.90;999.90;;;13.10;76.70;;;;;;5072730;28;20041;-71
2021/04/03 09:52:26;;;;;;;1999.90;999.90;;;13.20;76.90;;;;;;5070889;28;20423;-72
2021/04/03 09:54:52;;;;;;;1999.90;999.90;;;13.40;77.10;;;;;;5069018;28;20159;-72
2021/04/03 09:57:20;;;;;;;1999.90;999.90;;;13.40;76.70;;;;;;5072503;28;20403;-72
2021/04/03 09:59:46;;;;;;;1999.90;999.90;;;13.50;76.90;;;;;;5068944;28;20051;-72
2021/04/03 10:02:13;;;;;;;1999.90;999.90;;;13.60;77.00;;;;;;5067575;28;20372;-72
2021/04/03 10:04:39;;;;;;;1999.90;999.90;;;13.80;77.30;;;;;;5069415;28;20045;-73
2021/04/03 10:07:06;;;;;;;1999.90;999.90;;;13.90;77.30;;;;;;5071301;28;20475;-71
2021/04/03 10:09:32;;;;;;;1999.90;999.90;;;14.10;77.40;;;;;;5072271;28;20041;-71
2021/04/03 10:11:59;;;;;;;1999.90;999.90;;;14.20;77.40;;;;;;5072238;28;20479;-71
2021/04/03 10:14:25;;;;;;;1999.90;999.90;;;14.10;76.60;;;;;;5071046;28;20110;-71
2021/04/03 10:17:01;;;;;;;1999.90;999.90;;;13.70;75.90;;;;;;5068975;28;20075;-71
2021/04/03 10:19:28;;;;;;;1999.90;999.90;;;13.40;76.30;;;;;;5065984;28;20052;-72
2021/04/03 10:21:54;;;;;;;1999.90;999.90;;;13.20;77.20;;;;;;5070928;28;20127;-71
2021/04/03 10:24:20;;;;;;;1999.90;999.90;;;13.40;78.50;;;;;;5070129;28;20128;-71
2021/04/03 10:26:47;;;;;;;1999.90;999.90;;;13.70;79.70;;;;;;5068079;28;20048;-71
2021/04/03 10:29:13;;;;;;;1999.90;999.90;;;13.80;80.30;;;;;;5069006;28;20037;-71
2021/04/03 10:31:40;;;;;;;1999.90;999.90;;;13.70;80.30;;;;;;5071591;28;20128;-71
2021/04/03 10:34:06;;;;;;;1999.90;999.90;;;13.80;81.10;;;;;;5072691;28;20051;-72
2021/04/03 10:36:32;;;;;;;1999.90;999.90;;;13.90;82.20;;;;;;5065358;28;20127;-72
2021/04/03 10:38:58;;;;;;;1999.90;999.90;;;14.20;84.30;;;;;;5069299;28;20491;-72
2021/04/03 10:41:24;;;;;;;1999.90;999.90;;;14.60;87.10;;;;;;5063794;28;20045;-72
2021/04/03 10:43:51;;;;;;;1999.90;999.90;;;14.80;88.30;;;;;;5067096;28;20044;-72
2021/04/03 10:46:17;;;;;;;1999.90;999.90;;;14.90;89.10;;;;;;5064574;28;20073;-71
2021/04/03 10:48:43;;;;;;;1999.90;999.90;;;15.20;89.50;;;;;;5063714;28;20504;-72
2021/04/03 10:51:09;;;;;;;1999.90;999.90;;;15.40;90.10;;;;;;5066340;28;20041;-72
2021/04/03 10:53:36;;;;;;;1999.90;999.90;;;15.50;90.70;;;;;;5069798;28;20045;-72
2021/04/03 10:56:02;;;;;;;1999.90;999.90;;;15.70;90.70;;;;;;5066693;28;20058;-72
2021/04/03 10:58:28;;;;;;;1999.90;999.90;;;15.80;90.00;;;;;;5068779;28;20053;-72
2021/04/03 11:00:56;;;;;;;1999.90;999.90;;;15.80;88.90;;;;;;5068807;28;20365;-72
2021/04/03 11:03:22;;;;;;;1999.90;999.90;;;15.60;89.00;;;;;;5071217;28;20047;-72
2021/04/03 11:05:49;;;;;;;1999.90;999.90;;;15.70;88.00;;;;;;5065304;28;20361;-71
2021/04/03 11:08:16;;;;;;;1999.90;999.90;;;15.70;87.60;;;;;;5070025;28;20047;-72
2021/04/03 11:10:42;;;;;;;1999.90;999.90;;;15.90;87.10;;;;;;5064373;28;20052;-72
2021/04/03 11:13:09;;;;;;;1999.90;999.90;;;16.30;89.10;;;;;;5070569;28;20373;-72
2021/04/03 11:15:35;;;;;;;1999.90;999.90;;;16.70;90.80;;;;;;5058001;28;20060;-72
2021/04/03 11:18:01;;;;;;;1999.90;999.90;;;16.80;90.10;;;;;;5063042;28;20495;-72
2021/04/03 11:20:27;;;;;;;1999.90;999.90;;;16.50;89.20;;;;;;5069978;28;20055;-72
2021/04/03 11:22:54;;;;;;;1999.90;999.90;;;16.30;87.40;;;;;;5063241;28;20088;-71
2021/04/03 11:25:21;;;;;;;1999.90;999.90;;;16.30;88.60;;;;;;5068365;28;20132;-72
2021/04/03 11:27:47;;;;;;;1999.90;999.90;;;16.50;89.70;;;;;;5055487;28;20070;-72
2021/04/03 11:30:13;;;;;;;1999.90;999.90;;;16.70;90.20;;;;;;5066654;28;20091;-72
2021/04/03 11:32:48;;;;;;;1999.90;999.90;;;16.90;90.50;;;;;;5067503;28;20526;-72
2021/04/03 11:35:17;;;;;;;1999.90;999.90;;;17.10;91.70;;;;;;5062580;28;20044;-72
2021/04/03 11:37:44;;;;;;;1999.90;999.90;;;17.40;91.10;;;;;;5067439;28;20425;-72
2021/04/03 11:40:12;;;;;;;1999.90;999.90;;;17.40;91.20;;;;;;5065715;28;20056;-71
2021/04/03 11:42:38;;;;;;;1999.90;999.90;;;17.20;90.10;;;;;;5059610;28;20157;-72
2021/04/03 11:45:07;;;;;;;1999.90;999.90;;;17.00;89.10;;;;;;5064606;28;20169;-72
2021/04/03 11:47:33;;;;;;;;;;;17.00;86.60;;;;;;5060822;28;20573;-71
2021/04/03 11:50:00;;;;;;;1999.90;999.90;;;17.00;85.40;;;;;;5060654;28;19924;-72
2021/04/03 11:52:30;;;;;;;1999.90;999.90;;;17.30;88.00;;;;;;5052240;28;20074;-72
2021/04/03 11:54:56;;;;;;;1999.90;999.90;;;17.60;88.70;;;;;;5052813;28;20056;-72
2021/04/03 11:57:23;;;;;;;1999.90;999.90;;;17.90;90.10;;;;;;5051751;28;20071;-72
2021/04/03 11:59:49;;;;;;;1999.90;999.90;;;18.20;91.10;;;;;;5056592;28;20063;-72
2021/04/03 12:02:15;;;;;;;1999.90;999.90;;;18.60;91.90;;;;;;5054125;28;20049;-72
2021/04/03 12:04:41;;;;;;;1999.90;999.90;;;18.90;92.60;;;;;;5056927;28;20090;-72
2021/04/03 12:07:07;;;;;;;1999.90;999.90;;;19.00;93.00;;;;;;5056024;28;20127;-72
2021/04/03 12:09:34;;;;;;;1999.90;999.90;;;19.10;92.60;;;;;;5057276;28;20072;-72
2021/04/03 12:12:01;;;;;;;1999.90;999.90;;;19.20;91.90;;;;;;5061394;28;20527;-72
2021/04/03 12:14:27;;;;;;;1999.90;999.90;;;19.30;90.80;;;;;;5067786;28;20059;-72